Time;durP1;ratioP1;P1;durP2;ratioP2;P2;SDS_P1;SDS_P2;PMS_P1;PMS_P2;Temp;Humidity;BMP_temperature;BMP_pressure;BME280_temperature;BME280_humidity;BME280_pressure;Samples;Min_cycle;Max_cycle;Signal;HPM_P1;HPM_P2
2022/08/19 00:01:30;;;;;;;8.68;7.70;;;;;;;25.29;63.16;100227.19;5077573;28;20043;-72
2022/08/19 00:03:57;;;;;;;9.48;7.18;;;;;;;25.25;63.50;100224.88;5093990;28;20032;-72
2022/08/19 00:06:22;;;;;;;12.68;8.50;;;;;;;25.24;63.58;100224.00;5065852;28;20035;-73
2022/08/19 00:08:48;;;;;;;10.73;8.68;;;;;;;25.26;63.57;100231.97;5054175;28;20037;-73
2022/08/19 00:11:13;;;;;;;10.65;7.35;;;;;;;25.24;63.36;100236.59;5064023;28;20130;-73
2022/08/19 00:13:39;;;;;;;8.77;7.03;;;;;;;25.27;63.39;100234.50;5093616;28;20032;-73
2022/08/19 00:16:05;;;;;;;8.70;7.30;;;;;;;25.25;63.40;100233.78;5091591;28;20035;-72
2022/08/19 00:18:32;;;;;;;9.43;7.95;;;;;;;25.26;63.37;100232.81;5087911;28;20043;-72
2022/08/19 00:20:57;;;;;;;11.55;7.78;;;;;;;25.27;63.27;100233.66;5076970;28;20056;-71
2022/08/19 00:23:23;;;;;;;7.90;6.90;;;;;;;25.26;63.14;100232.81;5074510;28;20112;-72
2022/08/19 00:25:48;;;;;;;11.77;8.15;;;;;;;25.26;63.10;100232.81;5053940;28;20135;-72
2022/08/19 00:28:13;;;;;;;12.20;8.98;;;;;;;25.26;63.10;100230.13;5061498;28;20032;-72
2022/08/19 00:30:40;;;;;;;16.25;9.20;;;;;;;25.22;63.33;100239.44;5078510;28;20169;-70
2022/08/19 00:33:07;;;;;;;11.85;8.57;;;;;;;25.19;63.51;100231.63;5092743;28;20140;-72
2022/08/19 00:35:33;;;;;;;11.68;8.00;;;;;;;25.15;63.46;100232.88;5073486;28;20036;-72
2022/08/19 00:37:59;;;;;;;11.38;8.15;;;;;;;25.12;63.71;100235.81;5081217;28;20047;-72
2022/08/19 00:40:25;;;;;;;10.52;8.27;;;;;;;25.10;63.50;100232.41;5074329;28;20488;-72
2022/08/19 00:42:53;;;;;;;9.10;8.00;;;;;;;25.10;63.70;100232.41;5059828;28;20032;-73
2022/08/19 00:45:23;;;;;;;9.50;8.40;;;;;;;25.06;63.72;100244.38;5073147;28;20050;-70
2022/08/19 00:47:49;;;;;;;13.20;8.52;;;;;;;25.04;63.93;100232.88;5075157;28;20138;-72
2022/08/19 00:50:18;;;;;;;11.55;8.40;;;;;;;25.02;63.99;100235.72;5069158;28;20155;-70
2022/08/19 00:52:48;;;;;;;11.63;8.73;;;;;;;24.97;64.08;100220.94;5068444;28;20035;-71
2022/08/19 00:55:21;;;;;;;10.15;8.18;;;;;;;24.98;64.07;100218.16;5053132;28;20423;-72
2022/08/19 00:57:56;;;;;;;;;;;;;;;24.93;64.50;100214.97;5057695;28;20039;-71
2022/08/19 01:00:23;;;;;;;10.80;8.23;;;;;;;24.91;64.14;100221.47;5067326;28;19916;-71
2022/08/19 01:02:49;;;;;;;11.35;8.32;;;;;;;24.93;64.10;100220.34;5059279;28;20048;-71
2022/08/19 01:05:20;;;;;;;12.07;8.93;;;;;;;24.98;64.08;100217.31;5067126;28;20043;-71
2022/08/19 01:07:47;;;;;;;10.33;8.03;;;;;;;25.07;63.74;100212.00;5060826;28;20028;-69
2022/08/19 01:10:18;;;;;;;11.13;8.80;;;;;;;25.17;63.39;100217.44;5066354;28;20376;-70
2022/08/19 01:12:44;;;;;;;9.10;8.20;;;;;;;25.30;63.11;100218.13;5070548;28;20035;-72
2022/08/19 01:15:14;;;;;;;9.95;8.70;;;;;;;25.38;62.95;100213.94;5068747;28;20029;-71
2022/08/19 01:17:41;;;;;;;14.23;8.80;;;;;;;25.46;62.63;100220.34;5061439;28;20033;-71
2022/08/19 01:20:14;;;;;;;13.93;10.38;;;;;;;25.46;62.70;100219.50;5061761;28;20036;-71
2022/08/19 01:22:49;;;;;;;11.45;8.50;;;;;;;25.48;62.56;100228.28;5064376;28;20028;-68
2022/08/19 01:25:18;;;;;;;11.18;8.27;;;;;;;25.52;62.48;100233.25;5066939;28;20044;-72
2022/08/19 01:27:48;;;;;;;9.48;7.95;;;;;;;25.50;62.68;100224.47;5068700;28;20033;-71
2022/08/19 01:30:22;;;;;;;8.75;7.80;;;;;;;25.54;62.56;100228.59;5069035;28;20102;-72
2022/08/19 01:32:48;;;;;;;12.27;9.45;;;;;;;25.57;62.45;100224.78;5053348;28;20107;-72
2022/08/19 01:35:13;;;;;;;11.23;8.95;;;;;;;25.56;62.57;100217.69;5057688;28;20041;-71
2022/08/19 01:37:53;;;;;;;11.88;9.40;;;;;;;25.60;62.66;100224.53;5052348;28;20037;-72
2022/08/19 01:40:21;;;;;;;11.70;8.57;;;;;;;25.62;62.46;100225.25;5070180;28;20049;-72
2022/08/19 01:42:48;;;;;;;9.65;8.65;;;;;;;25.58;62.45;100220.28;5056134;28;20384;-71
2022/08/19 01:45:14;;;;;;;9.43;8.30;;;;;;;25.60;62.58;100218.28;5058607;28;20056;-71
2022/08/19 01:47:40;;;;;;;17.85;10.15;;;;;;;25.55;62.59;100218.69;5064219;28;20467;-71
2022/08/19 01:50:08;;;;;;;10.18;8.50;;;;;;;25.56;62.86;100223.09;5055348;28;20552;-71
2022/08/19 01:52:39;;;;;;;8.63;7.72;;;;;;;25.60;62.58;100220.97;5060694;28;20441;-70
2022/08/19 01:55:07;;;;;;;10.43;9.32;;;;;;;25.59;62.65;100214.75;5068122;28;20029;-71
2022/08/19 01:57:33;;;;;;;11.88;9.05;;;;;;;25.48;62.95;100207.59;5081722;28;20078;-71
2022/08/19 01:59:59;;;;;;;12.85;9.77;;;;;;;25.38;63.13;100203.19;5073473;28;20706;-69
2022/08/19 02:02:25;;;;;;;13.80;10.48;;;;;;;25.29;63.42;100202.09;5058924;28;20040;-72
2022/08/19 02:04:50;;;;;;;12.13;9.68;;;;;;;25.20;63.69;100200.22;5058980;28;20698;-65
2022/08/19 02:07:19;;;;;;;11.57;10.00;;;;;;;25.11;63.88;100204.53;5070843;28;20358;-67
2022/08/19 02:09:44;;;;;;;13.43;10.05;;;;;;;25.01;64.13;100190.13;5060159;28;20082;-70
2022/08/19 02:12:10;;;;;;;11.77;9.30;;;;;;;24.95;64.19;100194.22;5049430;28;20041;-70
2022/08/19 02:14:36;;;;;;;11.95;10.05;;;;;;;24.91;64.52;100211.56;5067341;28;20056;-69
2022/08/19 02:17:02;;;;;;;11.30;9.20;;;;;;;24.86;64.60;100212.97;5063760;28;20037;-70
2022/08/19 02:19:27;;;;;;;13.93;10.13;;;;;;;24.83;64.66;100209.53;5070297;28;20534;-70
2022/08/19 02:21:53;;;;;;;13.80;8.57;;;;;;;24.82;64.52;100210.53;5068036;28;20032;-69
2022/08/19 02:24:18;;;;;;;12.98;9.18;;;;;;;24.76;64.74;100204.81;5066391;28;20441;-70
2022/08/19 02:26:44;;;;;;;9.98;8.80;;;;;;;24.70;64.92;100203.50;5062216;28;20032;-71
2022/08/19 02:29:09;;;;;;;16.02;11.43;;;;;;;24.71;64.90;100204.34;5074414;28;20432;-71
2022/08/19 02:31:35;;;;;;;10.15;8.93;;;;;;;24.68;65.03;100196.53;5073469;28;20040;-70
2022/08/19 02:34:01;;;;;;;9.52;8.23;;;;;;;24.72;64.83;100198.81;5060075;28;20180;-71
2022/08/19 02:36:27;;;;;;;9.63;8.15;;;;;;;24.76;64.60;100202.13;5067996;28;20052;-71
2022/08/19 02:38:53;;;;;;;10.43;8.80;;;;;;;24.76;64.53;100192.22;5063279;28;20052;-71
2022/08/19 02:41:23;;;;;;;10.38;9.15;;;;;;;24.78;64.53;100194.78;5069725;28;20174;-69
2022/08/19 02:43:49;;;;;;;11.02;9.85;;;;;;;24.77;64.73;100198.44;5062107;28;20490;-65
2022/08/19 02:46:23;;;;;;;9.48;8.57;;;;;;;24.74;64.62;100198.72;5081080;28;20032;-72
2022/08/19 02:48:51;;;;;;;12.43;9.88;;;;;;;24.73;64.86;100195.16;5075530;28;20556;-72
2022/08/19 02:51:22;;;;;;;9.77;8.63;;;;;;;24.73;64.92;100197.84;5070507;28;20041;-69
2022/08/19 02:53:48;;;;;;;11.48;8.57;;;;;;;24.70;64.65;100192.75;5074824;28;20037;-72
2022/08/19 02:56:13;;;;;;;10.10;8.18;;;;;;;24.69;64.70;100192.84;5074599;28;20032;-71
2022/08/19 02:58:39;;;;;;;14.15;10.90;;;;;;;24.65;64.86;100194.09;5065261;28;20183;-72
2022/08/19 03:01:05;;;;;;;15.07;10.57;;;;;;;24.56;65.14;100191.19;5075261;28;20044;-70
2022/08/19 03:03:31;;;;;;;10.50;8.57;;;;;;;24.50;65.13;100193.56;5059950;28;20110;-71
2022/08/19 03:06:07;;;;;;;10.93;9.23;;;;;;;24.50;65.29;100189.03;5056397;28;20029;-70
2022/08/19 03:08:33;;;;;;;9.95;8.40;;;;;;;24.45;65.28;100193.06;5071041;28;20032;-70
2022/08/19 03:10:58;;;;;;;15.30;11.18;;;;;;;24.41;65.43;100188.94;5075291;28;20055;-70
2022/08/19 03:13:23;;;;;;;14.73;10.85;;;;;;;24.37;65.63;100182.91;5062035;28;20041;-70
2022/08/19 03:15:49;;;;;;;15.00;9.48;;;;;;;24.34;65.51;100185.88;5069911;28;20040;-72
2022/08/19 03:18:15;;;;;;;10.75;9.63;;;;;;;24.31;65.82;100191.50;5077157;28;20040;-71
2022/08/19 03:20:46;;;;;;;10.38;9.27;;;;;;;24.26;65.67;100185.66;5073327;28;20051;-72
2022/08/19 03:23:13;;;;;;;11.70;10.50;;;;;;;24.18;66.01;100183.59;5070330;28;20025;-71
2022/08/19 03:25:45;;;;;;;9.77;8.77;;;;;;;24.20;65.94;100184.31;5054723;28;20175;-71
2022/08/19 03:28:12;;;;;;;12.68;9.50;;;;;;;24.16;65.92;100188.22;5071654;28;20036;-72
2022/08/19 03:30:42;;;;;;;10.55;9.38;;;;;;;24.17;66.09;100187.22;5067327;28;20479;-72
2022/08/19 03:33:09;;;;;;;9.30;8.02;;;;;;;24.15;66.25;100185.66;5084164;28;20497;-71
2022/08/19 03:35:38;;;;;;;10.88;9.13;;;;;;;24.12;66.18;100197.50;5086782;28;20060;-71
2022/08/19 03:38:06;;;;;;;11.30;9.43;;;;;;;24.16;66.25;100192.75;5075224;28;20032;-71
2022/08/19 03:40:34;;;;;;;11.65;10.00;;;;;;;24.17;66.16;100189.91;5072210;28;20139;-72
2022/08/19 03:43:00;;;;;;;11.77;10.13;;;;;;;24.16;66.11;100192.75;5071980;28;20483;-71
2022/08/19 03:45:26;;;;;;;12.15;9.00;;;;;;;24.20;65.83;100192.34;5076499;28;20127;-71
2022/08/19 03:47:51;;;;;;;13.68;10.90;;;;;;;24.25;65.87;100195.50;5084376;28;20136;-72
2022/08/19 03:50:17;;;;;;;12.07;9.10;;;;;;;24.24;65.63;100199.19;5074519;28;20036;-72
2022/08/19 03:52:48;;;;;;;10.43;9.40;;;;;;;24.25;65.54;100189.28;5065172;28;20045;-71
2022/08/19 03:55:20;;;;;;;12.40;9.95;;;;;;;24.31;65.50;100199.56;5064931;28;20032;-72
2022/08/19 03:57:48;;;;;;;15.43;10.25;;;;;;;24.31;65.58;100203.09;5073308;28;20032;-71
2022/08/19 04:00:23;;;;;;;14.45;9.20;;;;;;;24.32;65.48;100198.56;5074936;28;20036;-71
2022/08/19 04:03:01;;;;;;;13.25;9.80;;;;;;;24.35;65.17;100201.00;5073964;28;20113;-72
2022/08/19 04:05:28;;;;;;;16.98;10.95;;;;;;;24.37;65.21;100203.53;5073450;28;20036;-72
2022/08/19 04:07:54;;;;;;;10.73;9.65;;;;;;;24.42;65.04;100204.09;5067720;28;20040;-71
2022/08/19 04:10:20;;;;;;;12.25;10.38;;;;;;;24.43;65.02;100203.94;5075024;28;20036;-70
2022/08/19 04:12:46;;;;;;;13.15;10.25;;;;;;;24.45;64.83;100210.03;5075084;28;20040;-70
2022/08/19 04:15:11;;;;;;;14.35;9.50;;;;;;;24.47;64.93;100208.06;5063047;28;20040;-70
2022/08/19 04:17:36;;;;;;;14.13;10.57;;;;;;;24.51;64.76;100214.06;5081654;28;20037;-70
2022/08/19 04:20:02;;;;;;;15.77;9.65;;;;;;;24.54;64.66;100213.81;5069682;28;20040;-71
2022/08/19 04:22:28;;;;;;;14.10;10.00;;;;;;;24.57;64.67;100209.00;5071612;28;20033;-72
2022/08/19 04:24:53;;;;;;;11.48;9.43;;;;;;;24.66;64.33;100210.09;5070972;28;20056;-71
2022/08/19 04:27:18;;;;;;;13.75;10.20;;;;;;;24.72;64.25;100208.72;5065383;28;20040;-71
2022/08/19 04:29:44;;;;;;;13.52;9.80;;;;;;;24.74;64.14;100213.00;5068903;28;20032;-71
2022/08/19 04:32:09;;;;;;;11.10;8.20;;;;;;;24.78;63.92;100208.22;5090603;28;20153;-71
2022/08/19 04:34:35;;;;;;;10.75;9.32;;;;;;;24.75;63.99;100201.25;5074073;28;20037;-68
2022/08/19 04:37:00;;;;;;;11.82;9.57;;;;;;;24.80;63.95;100187.44;5053896;28;20037;-70
2022/08/19 04:45:03;;;;;;;12.50;10.38;;;;;;;25.01;63.26;100203.59;5057877;28;20098;-71
2022/08/19 04:47:29;;;;;;;13.43;10.85;;;;;;;25.17;62.90;100204.00;5056393;28;20021;-71
2022/08/19 04:49:54;;;;;;;12.70;10.15;;;;;;;25.31;62.57;100205.53;5071246;28;20537;-72
2022/08/19 04:52:19;;;;;;;14.45;10.45;;;;;;;25.40;62.03;100206.56;5073010;28;20127;-72
2022/08/19 04:54:45;;;;;;;14.10;11.15;;;;;;;25.44;62.20;100203.47;5069206;28;20040;-71
2022/08/19 04:57:10;;;;;;;16.58;11.52;;;;;;;25.51;61.83;100204.66;5069493;28;20376;-72
2022/08/19 04:59:37;;;;;;;11.23;9.90;;;;;;;25.60;61.77;100211.06;5062964;28;20063;-68
2022/08/19 05:02:03;;;;;;;14.75;11.07;;;;;;;25.70;61.57;100203.91;5058787;28;20029;-71
2022/08/19 05:04:31;;;;;;;13.88;10.95;;;;;;;25.82;61.22;100209.25;5065948;28;20039;-70
2022/08/19 05:06:56;;;;;;;13.95;9.85;;;;;;;25.97;60.90;100207.84;5071645;28;20035;-71
2022/08/19 05:09:22;;;;;;;15.68;12.60;;;;;;;26.05;60.58;100205.34;5061898;28;20028;-72
2022/08/19 05:11:49;;;;;;;16.52;12.80;;;;;;;26.08;60.58;100199.69;5070848;28;20045;-70
2022/08/19 05:14:14;;;;;;;17.42;13.07;;;;;;;26.12;60.33;100202.97;5070734;28;20040;-70
2022/08/19 05:16:40;;;;;;;17.30;13.60;;;;;;;26.16;60.03;100193.63;5071860;28;20037;-70
2022/08/19 05:24:34;;;;;;;11.43;9.77;;;;;;;26.23;59.69;100211.78;5075224;28;20403;-71
2022/08/19 05:26:59;;;;;;;15.00;10.02;;;;;;;26.35;59.51;100214.34;5084140;28;20464;-72
2022/08/19 05:29:27;;;;;;;14.15;11.88;;;;;;;26.44;59.25;100219.75;5069697;28;20024;-64
2022/08/19 05:31:54;;;;;;;19.17;12.60;;;;;;;26.56;58.98;100223.22;5082209;28;20471;-70
2022/08/19 05:34:22;;;;;;;14.85;11.25;;;;;;;26.68;58.44;100223.94;5063299;28;20036;-68
2022/08/19 05:36:49;;;;;;;16.58;11.40;;;;;;;26.83;58.19;100224.38;5067830;28;20033;-70
2022/08/19 05:39:18;;;;;;;14.95;11.93;;;;;;;26.98;57.95;100228.34;5063245;28;20075;-71
2022/08/19 05:41:46;;;;;;;14.02;10.77;;;;;;;27.07;57.52;100222.09;5063223;28;20024;-69
2022/08/19 05:44:12;;;;;;;15.90;11.68;;;;;;;27.14;57.39;100228.66;5071665;28;20032;-69
2022/08/19 05:46:39;;;;;;;17.08;12.25;;;;;;;27.18;57.17;100229.22;5069995;28;20098;-68
2022/08/19 05:49:06;;;;;;;14.90;10.90;;;;;;;27.31;56.91;100223.53;5058024;28;20025;-67
2022/08/19 05:51:33;;;;;;;16.80;11.88;;;;;;;27.38;56.77;100232.75;5069670;28;20118;-69
2022/08/19 05:54:00;;;;;;;18.48;11.50;;;;;;;27.45;56.46;100228.47;5079959;28;20040;-70
2022/08/19 05:56:25;;;;;;;18.45;11.65;;;;;;;27.56;56.13;100233.66;5070363;28;20040;-69
2022/08/19 05:58:52;;;;;;;12.35;10.50;;;;;;;27.57;56.06;100230.00;5074392;28;20463;-67
2022/08/19 06:01:18;;;;;;;14.43;11.50;;;;;;;27.64;56.13;100236.50;5079212;28;20115;-70
2022/08/19 06:03:44;;;;;;;16.08;10.65;;;;;;;27.77;55.83;100241.63;5070217;28;20049;-70
2022/08/19 06:06:12;;;;;;;12.82;10.13;;;;;;;27.91;55.28;100237.56;5076757;28;20024;-71
2022/08/19 06:08:38;;;;;;;10.63;9.52;;;;;;;28.02;55.14;100234.69;5060474;28;20063;-69
2022/08/19 06:11:35;;;;;;;12.52;9.98;;;;;;;28.15;54.46;100235.19;5054609;28;20044;-69
2022/08/19 06:14:08;;;;;;;13.32;8.82;;;;;;;28.22;54.40;100230.03;5051294;28;20045;-70
2022/08/19 06:16:35;;;;;;;10.73;8.77;;;;;;;28.45;54.08;100239.47;5090555;28;20028;-68
2022/08/19 06:19:03;;;;;;;9.20;7.60;;;;;;;28.67;53.71;100237.31;5096430;28;20047;-69
2022/08/19 06:21:30;;;;;;;13.07;8.95;;;;;;;28.86;53.39;100244.44;5091243;28;20088;-69
2022/08/19 06:23:57;;;;;;;7.15;6.45;;;;;;;28.95;53.01;100241.66;5083476;28;20031;-69
2022/08/19 06:26:23;;;;;;;11.60;7.13;;;;;;;29.20;52.38;100240.06;5075926;28;20383;-69
2022/08/19 06:28:50;;;;;;;10.88;7.90;;;;;;;29.30;52.38;100236.41;5079901;28;20471;-69
2022/08/19 06:31:17;;;;;;;9.85;6.63;;;;;;;29.32;52.14;100239.78;5075907;28;20036;-71
2022/08/19 06:33:44;;;;;;;7.47;6.43;;;;;;;29.46;52.16;100244.63;5084313;28;20502;-72
2022/08/19 06:36:29;;;;;;;7.57;6.25;;;;;;;29.59;51.64;100234.25;5076334;28;20037;-73
2022/08/19 06:38:57;;;;;;;8.20;6.93;;;;;;;29.70;51.26;100225.88;5075759;28;20098;-75
2022/08/19 06:41:23;;;;;;;8.98;6.72;;;;;;;29.69;51.37;100226.03;5058184;28;20052;-76
2022/08/19 06:43:49;;;;;;;8.65;7.03;;;;;;;29.71;51.02;100226.72;5082070;28;20039;-76
2022/08/19 06:46:17;;;;;;;10.23;8.00;;;;;;;29.76;51.20;100228.94;5095834;28;20386;-76
2022/08/19 06:48:43;;;;;;;6.97;5.97;;;;;;;29.87;50.89;100236.78;5092359;28;20029;-76
2022/08/19 06:51:08;;;;;;;8.85;6.70;;;;;;;30.05;50.79;100229.44;5075508;28;20094;-76
2022/08/19 06:53:33;;;;;;;8.68;7.75;;;;;;;30.06;50.60;100233.00;5075367;28;20060;-73
2022/08/19 06:56:02;;;;;;;9.57;7.05;;;;;;;30.09;50.41;100233.53;5075625;28;20454;-74
2022/08/19 06:58:34;;;;;;;11.10;7.88;;;;;;;30.09;50.11;100235.38;5076757;28;20038;-73
2022/08/19 07:01:03;;;;;;;12.98;7.00;;;;;;;30.10;50.06;100237.06;5070301;28;20540;-75
2022/08/19 07:03:34;;;;;;;8.35;6.57;;;;;;;30.17;50.15;100233.59;5074313;28;20471;-75
2022/08/19 07:06:07;;;;;;;9.27;7.40;;;;;;;30.14;50.27;100231.16;5075257;28;20039;-75
2022/08/19 07:08:35;;;;;;;10.45;7.38;;;;;;;30.23;49.99;100237.50;5075043;28;20124;-75
2022/08/19 07:11:00;;;;;;;7.82;7.00;;;;;;;30.19;50.04;100236.97;5074870;28;20383;-73
2022/08/19 07:13:26;;;;;;;10.27;6.07;;;;;;;30.31;50.07;100236.66;5075924;28;20034;-74
2022/08/19 07:15:51;;;;;;;8.45;6.65;;;;;;;30.45;49.85;100227.91;5075843;28;20455;-75
2022/08/19 07:18:19;;;;;;;9.70;6.80;;;;;;;30.66;49.46;100233.72;5089322;28;20032;-75
2022/08/19 07:20:45;;;;;;;6.72;6.03;;;;;;;30.79;48.89;100229.69;5095050;28;20043;-74
2022/08/19 07:23:11;;;;;;;9.55;6.20;;;;;;;30.93;48.43;100231.75;5078274;28;20040;-76
2022/08/19 07:25:37;;;;;;;7.90;6.43;;;;;;;31.07;48.47;100244.63;5076943;28;20040;-72
2022/08/19 07:28:04;;;;;;;6.82;6.13;;;;;;;31.26;48.28;100232.59;5073297;28;20048;-71
2022/08/19 07:30:30;;;;;;;7.32;6.50;;;;;;;31.39;47.42;100242.97;5066818;28;20498;-74
2022/08/19 07:32:56;;;;;;;9.05;6.45;;;;;;;31.47;47.20;100234.81;5093992;28;20443;-75
2022/08/19 07:35:23;;;;;;;9.52;6.40;;;;;;;31.45;47.13;100231.44;5087578;28;20121;-73
2022/08/19 07:37:48;;;;;;;8.23;6.32;;;;;;;31.53;47.13;100227.84;5094224;28;20028;-75
2022/08/19 07:40:14;;;;;;;7.07;5.70;;;;;;;31.60;46.86;100224.28;5083109;28;20071;-73
2022/08/19 07:42:39;;;;;;;8.20;6.78;;;;;;;31.54;46.95;100219.53;5075963;28;20181;-73
2022/08/19 07:45:06;;;;;;;7.68;6.15;;;;;;;31.57;47.04;100215.63;5070975;28;20405;-72
2022/08/19 07:47:31;;;;;;;8.73;6.03;;;;;;;31.59;46.79;100211.69;5074610;28;20418;-74
2022/08/19 07:49:57;;;;;;;7.50;6.22;;;;;;;31.67;46.53;100207.28;5079607;28;20136;-73
2022/08/19 07:52:22;;;;;;;14.45;7.25;;;;;;;31.78;46.35;100204.19;5076031;28;20028;-73
2022/08/19 07:54:49;;;;;;;6.53;5.68;;;;;;;31.89;46.28;100201.97;5082646;28;20468;-74
2022/08/19 07:57:16;;;;;;;11.15;6.18;;;;;;;32.01;46.07;100205.16;5087525;28;20036;-73
2022/08/19 07:59:41;;;;;;;11.02;6.30;;;;;;;32.06;46.02;100204.63;5094068;28;20036;-73
2022/08/19 08:02:08;;;;;;;7.60;6.00;;;;;;;32.18;45.87;100207.78;5087936;28;20051;-72
2022/08/19 08:10:05;;;;;;;6.25;5.45;;;;;;;32.28;45.38;100203.84;5081756;28;20062;-73
2022/08/19 08:12:41;;;;;;;6.20;5.60;;;;;;;32.35;44.97;100207.53;5087018;28;20463;-74
2022/08/19 08:15:10;;;;;;;8.50;6.35;;;;;;;32.42;45.17;100207.69;5093143;28;20035;-74
2022/08/19 08:17:37;;;;;;;6.25;5.35;;;;;;;32.57;44.87;100202.34;5077827;28;20523;-71
2022/08/19 08:20:06;;;;;;;6.30;5.50;;;;;;;32.60;44.71;100196.56;5103913;28;20494;-71
2022/08/19 08:25:20;;;;;;;8.15;5.47;;;;;;;32.83;44.32;100193.81;5075029;28;20506;-72
2022/08/19 08:27:47;;;;;;;9.02;5.15;;;;;;;32.87;43.68;100190.53;5083475;28;20025;-73
2022/08/19 08:30:18;;;;;;;10.25;5.82;;;;;;;32.90;43.68;100194.78;5073667;28;20036;-73
2022/08/19 08:32:44;;;;;;;6.43;5.30;;;;;;;32.87;43.60;100200.56;5074015;28;20032;-72
2022/08/19 08:35:12;;;;;;;6.75;5.18;;;;;;;32.76;43.50;100199.16;5084944;28;20024;-72
2022/08/19 08:37:38;;;;;;;9.35;5.65;;;;;;;32.71;43.60;100195.25;5074551;28;20043;-72
2022/08/19 08:40:21;;;;;;;8.68;4.90;;;;;;;32.66;43.83;100197.69;5075766;28;20049;-73
2022/08/19 08:42:58;;;;;;;8.38;5.70;;;;;;;32.52;43.03;100185.72;5093594;28;20063;-74
2022/08/19 08:45:24;;;;;;;7.60;5.25;;;;;;;32.41;43.34;100186.97;5093559;28;20479;-73
2022/08/19 08:47:53;;;;;;;9.77;5.72;;;;;;;32.45;42.62;100180.16;5090552;28;20043;-72
2022/08/19 08:50:29;;;;;;;8.60;5.40;;;;;;;32.41;42.42;100186.13;5076889;28;20154;-73
2022/08/19 08:52:57;;;;;;;8.23;5.28;;;;;;;32.52;42.85;100183.84;5074250;28;20124;-72
2022/08/19 08:55:28;;;;;;;6.53;4.90;;;;;;;32.49;42.46;100183.38;5077936;28;20391;-73
2022/08/19 08:58:02;;;;;;;6.05;4.57;;;;;;;32.46;41.66;100179.13;5090635;28;20032;-74
2022/08/19 09:00:32;;;;;;;7.43;4.88;;;;;;;32.46;41.76;100181.84;5091025;28;20116;-73
2022/08/19 09:03:00;;;;;;;5.95;4.82;;;;;;;32.46;42.34;100189.16;5093650;28;20037;-70
2022/08/19 09:05:45;;;;;;;8.30;4.47;;;;;;;32.41;40.85;100183.41;5093468;28;20032;-74
2022/08/19 09:08:24;;;;;;;6.15;4.70;;;;;;;32.44;41.90;100175.75;5093520;28;20035;-72
2022/08/19 09:10:53;;;;;;;7.35;4.53;;;;;;;32.34;41.28;100175.94;5073048;28;20033;-73
2022/08/19 09:13:22;;;;;;;6.60;4.63;;;;;;;32.51;41.94;100176.69;5072444;28;20499;-72
2022/08/19 09:15:54;;;;;;;5.53;4.63;;;;;;;32.59;41.78;100178.50;5076371;28;20085;-72
2022/08/19 09:18:20;;;;;;;7.07;5.05;;;;;;;32.60;41.65;100172.06;5072330;28;20044;-73
2022/08/19 09:20:47;;;;;;;7.97;5.00;;;;;;;32.82;41.58;100175.81;5072747;28;20391;-71
2022/08/19 09:23:13;;;;;;;6.93;4.43;;;;;;;32.94;41.16;100173.53;5071862;28;20039;-73
2022/08/19 09:25:39;;;;;;;5.53;4.60;;;;;;;33.03;41.40;100162.38;5081472;28;20037;-72
2022/08/19 09:28:06;;;;;;;6.22;4.68;;;;;;;33.05;40.82;100160.31;5077081;28;20120;-73
2022/08/19 09:30:40;;;;;;;6.85;4.82;;;;;;;33.09;40.70;100163.53;5075392;28;20035;-72
2022/08/19 09:33:06;;;;;;;7.45;4.68;;;;;;;33.13;40.65;100164.84;5074921;28;20029;-72
2022/08/19 09:35:32;;;;;;;6.15;4.68;;;;;;;33.03;40.80;100151.47;5074730;28;20028;-71
2022/08/19 09:38:00;;;;;;;5.78;4.72;;;;;;;33.04;40.69;100158.63;5060582;28;20182;-72
2022/08/19 09:40:29;;;;;;;11.80;5.50;;;;;;;33.10;40.25;100152.44;5054546;28;20136;-72
2022/08/19 09:42:56;;;;;;;7.05;5.18;;;;;;;33.19;40.87;100157.81;5054383;28;20037;-72
2022/08/19 09:45:22;;;;;;;7.75;5.13;;;;;;;33.09;40.82;100161.66;5055945;28;20029;-73
2022/08/19 09:47:50;;;;;;;6.70;5.57;;;;;;;33.24;40.34;100158.13;5055182;28;20083;-70
2022/08/19 09:50:17;;;;;;;6.95;5.20;;;;;;;33.04;40.49;100155.09;5072273;28;20040;-71
2022/08/19 09:52:43;;;;;;;7.78;4.70;;;;;;;33.05;40.51;100154.88;5082976;28;20471;-73
2022/08/19 09:55:10;;;;;;;7.50;4.82;;;;;;;33.17;39.46;100162.59;5082585;28;20047;-73
2022/08/19 09:57:36;;;;;;;6.68;5.10;;;;;;;33.20;39.94;100156.78;5076690;28;20393;-72
2022/08/19 10:00:04;;;;;;;7.35;5.50;;;;;;;33.47;39.33;100152.59;5076415;28;20491;-73
2022/08/19 10:02:30;;;;;;;7.43;5.65;;;;;;;33.75;38.93;100150.06;5076255;28;20029;-73
2022/08/19 10:07:39;;;;;;;6.05;5.18;;;;;;;34.28;38.07;100151.59;5080215;28;20450;-72
2022/08/19 10:10:06;;;;;;;11.70;5.50;;;;;;;34.30;38.02;100143.22;5092628;28;20115;-73
2022/08/19 10:12:33;;;;;;;5.88;4.85;;;;;;;34.05;38.21;100138.13;5096702;28;20081;-75
2022/08/19 10:14:59;;;;;;;7.57;5.22;;;;;;;33.88;38.17;100139.34;5084589;28;20485;-73
2022/08/19 10:17:25;;;;;;;12.85;5.50;;;;;;;33.75;38.29;100134.56;5076199;28;20464;-75
2022/08/19 10:19:51;;;;;;;8.70;5.30;;;;;;;33.91;38.30;100124.47;5076454;28;20032;-72
2022/08/19 10:22:18;;;;;;;8.80;4.75;;;;;;;34.06;38.14;100133.50;5078383;28;20051;-74
2022/08/19 10:24:43;;;;;;;6.68;5.10;;;;;;;34.07;37.67;100133.34;5076619;28;20029;-73
2022/08/19 10:27:10;;;;;;;11.70;5.57;;;;;;;34.26;37.30;100120.09;5077198;28;20402;-73
2022/08/19 10:29:36;;;;;;;7.25;5.28;;;;;;;34.40;37.01;100121.94;5074017;28;20068;-74
2022/08/19 10:32:07;;;;;;;6.82;4.95;;;;;;;34.58;37.27;100128.84;5075168;28;20105;-71
2022/08/19 10:34:33;;;;;;;7.97;5.27;;;;;;;34.64;36.94;100117.16;5062528;28;20052;-73
2022/08/19 10:37:00;;;;;;;9.25;5.30;;;;;;;34.69;36.84;100114.69;5065301;28;20493;-73
2022/08/19 10:39:29;;;;;;;5.47;4.72;;;;;;;34.65;36.51;100106.03;5084510;28;20067;-74
2022/08/19 10:41:56;;;;;;;7.63;4.97;;;;;;;34.58;36.75;100101.56;5075556;28;20045;-71
2022/08/19 10:44:22;;;;;;;6.32;5.18;;;;;;;34.47;36.76;100098.31;5075045;28;20032;-74
2022/08/19 10:46:48;;;;;;;8.70;5.35;;;;;;;34.43;36.95;100099.75;5076797;28;20029;-74
2022/08/19 10:49:14;;;;;;;11.48;4.88;;;;;;;34.35;36.93;100094.38;5077257;28;20438;-73
2022/08/19 10:56:50;;;;;;;8.25;5.22;;;;;;;34.37;37.14;100086.88;5087972;28;20089;-72
2022/08/19 10:57:10;;;;;;;8.73;5.40;;;;;;;34.44;36.98;100082.34;5075094;28;20468;-74
2022/08/19 10:59:36;;;;;;;8.68;5.03;;;;;;;34.30;37.05;100083.22;5075437;28;20040;-74
2022/08/19 11:02:04;;;;;;;7.10;5.05;;;;;;;34.15;37.02;100087.88;5088419;28;20036;-74
2022/08/19 11:04:29;;;;;;;7.43;5.07;;;;;;;34.10;37.01;100071.28;5092576;28;20063;-74
2022/08/19 11:06:55;;;;;;;8.57;5.13;;;;;;;34.14;36.93;100072.56;5094770;28;20067;-74
2022/08/19 11:09:24;;;;;;;8.25;4.75;;;;;;;34.23;36.60;100066.81;5075251;28;20254;-74
2022/08/19 11:11:52;;;;;;;7.00;4.68;;;;;;;34.42;36.49;100064.47;5075331;28;20024;-73
2022/08/19 11:14:20;;;;;;;7.00;5.25;;;;;;;34.58;36.42;100066.94;5080153;28;20077;-74
2022/08/19 11:16:45;;;;;;;6.53;4.90;;;;;;;34.62;36.35;100065.50;5083432;28;20110;-74
2022/08/19 11:19:12;;;;;;;6.78;4.90;;;;;;;34.77;35.94;100069.00;5088451;28;20486;-75
2022/08/19 11:21:42;;;;;;;8.60;4.95;;;;;;;34.65;35.16;100067.84;5071643;28;22017;-74
2022/08/19 11:24:10;;;;;;;9.50;5.20;;;;;;;34.62;35.63;100064.66;5053968;28;20035;-74
2022/08/19 11:26:38;;;;;;;7.35;5.20;;;;;;;34.64;35.46;100062.59;5054275;28;20020;-74
2022/08/19 11:29:05;;;;;;;7.25;5.13;;;;;;;34.60;35.15;100067.59;5054967;28;20047;-73
2022/08/19 11:31:35;;;;;;;8.15;4.63;;;;;;;34.72;35.27;100065.19;5054865;28;20048;-73
2022/08/19 11:34:03;;;;;;;6.40;4.88;;;;;;;34.90;34.54;100056.50;5054719;28;20029;-73
2022/08/19 11:36:29;;;;;;;9.63;4.28;;;;;;;35.00;34.32;100046.94;5052979;28;20037;-72
2022/08/19 11:38:54;;;;;;;5.78;4.25;;;;;;;35.22;34.10;100052.31;5066741;28;20040;-73
2022/08/19 11:41:25;;;;;;;7.75;4.18;;;;;;;35.41;33.63;100053.47;5073650;28;20037;-73
2022/08/19 11:43:52;;;;;;;5.07;4.30;;;;;;;35.50;33.50;100058.56;5073176;28;20124;-73
2022/08/19 11:46:18;;;;;;;9.48;4.40;;;;;;;35.53;33.56;100049.97;5074690;28;20039;-73